createdAt,value
2022-08-26T00:01:46.680Z,20.20
2022-08-26T00:04:13.927Z,20.20
2022-08-26T00:06:42.677Z,20.20
2022-08-26T00:09:16.225Z,20.20
2022-08-26T00:11:45.364Z,20.20
2022-08-26T00:14:13.975Z,20.20
2022-08-26T00:16:48.116Z,20.10
2022-08-26T00:19:16.639Z,20.10
2022-08-26T00:21:43.693Z,20.10
2022-08-26T00:24:10.347Z,20.10
2022-08-26T00:26:37.749Z,20.10
2022-08-26T00:29:04.443Z,20.10
2022-08-26T00:31:31.956Z,20.10
2022-08-26T00:33:59.277Z,20.10
2022-08-26T00:36:29.669Z,20.10
2022-08-26T00:38:57.411Z,20.10
2022-08-26T00:41:24.097Z,20.10
2022-08-26T00:43:51.757Z,20.10
2022-08-26T00:46:26.833Z,20.10
2022-08-26T00:49:12.079Z,20.20
2022-08-26T00:51:45.750Z,20.10
2022-08-26T00:54:14.463Z,20.10
2022-08-26T00:56:43.179Z,20.10
2022-08-26T00:59:13.101Z,20.20
2022-08-26T01:01:42.525Z,20.10
2022-08-26T01:04:15.888Z,20.20
2022-08-26T01:06:44.300Z,20.20
2022-08-26T01:09:11.807Z,20.20
2022-08-26T01:11:38.830Z,20.20
2022-08-26T01:14:07.446Z,20.20
2022-08-26T01:16:35.622Z,20.20
2022-08-26T01:19:09.896Z,20.20
2022-08-26T01:21:45.381Z,20.20
2022-08-26T01:24:14.911Z,20.20
2022-08-26T01:26:43.216Z,20.20
2022-08-26T01:29:14.885Z,20.20
2022-08-26T01:31:49.555Z,20.20
2022-08-26T01:34:37.852Z,20.10
2022-08-26T01:37:16.098Z,20.10
2022-08-26T01:39:44.722Z,20.10
2022-08-26T01:42:14.547Z,20.10
2022-08-26T01:45:01.243Z,20.10
2022-08-26T01:47:30.799Z,20.10
2022-08-26T01:49:59.628Z,20.10
2022-08-26T01:52:30.158Z,20.10
2022-08-26T01:54:58.377Z,20.10
2022-08-26T01:57:26.208Z,20.00
2022-08-26T01:59:56.748Z,20.00
2022-08-26T02:02:24.517Z,20.00
2022-08-26T02:04:56.949Z,20.00
2022-08-26T02:07:24.411Z,20.00
2022-08-26T02:09:53.973Z,19.90
2022-08-26T02:12:21.196Z,19.90
2022-08-26T02:14:53.783Z,19.90
2022-08-26T02:17:25.390Z,19.90
2022-08-26T02:19:52.402Z,19.90
2022-08-26T02:22:21.250Z,19.80
2022-08-26T02:25:18.006Z,19.80
2022-08-26T02:27:47.756Z,19.80
2022-08-26T02:30:21.332Z,19.80
2022-08-26T02:32:49.587Z,19.80
2022-08-26T02:35:20.339Z,19.90
2022-08-26T02:37:49.429Z,19.80
2022-08-26T02:40:19.218Z,19.80
2022-08-26T02:42:48.747Z,19.80
2022-08-26T02:45:16.352Z,19.80
2022-08-26T02:47:51.469Z,19.80
2022-08-26T02:50:19.545Z,19.90
2022-08-26T02:52:48.223Z,19.90
2022-08-26T02:55:15.583Z,19.90
2022-08-26T02:57:42.358Z,19.90
2022-08-26T03:00:11.878Z,20.00
2022-08-26T03:02:38.517Z,20.00
2022-08-26T03:05:05.877Z,20.00
2022-08-26T03:07:32.786Z,20.00
2022-08-26T03:09:59.551Z,20.00
2022-08-26T03:12:26.794Z,20.00
2022-08-26T03:14:53.540Z,20.00
2022-08-26T03:17:21.241Z,19.90
2022-08-26T03:19:51.767Z,20.00
2022-08-26T03:22:21.012Z,19.90
2022-08-26T03:24:47.765Z,19.90
2022-08-26T03:27:14.473Z,19.90
2022-08-26T03:30:00.215Z,19.90
2022-08-26T03:32:28.069Z,19.80
2022-08-26T03:34:56.379Z,19.80
2022-08-26T03:37:23.252Z,19.80
2022-08-26T03:39:49.989Z,19.80
2022-08-26T03:42:17.317Z,19.70
2022-08-26T03:44:48.486Z,19.80
2022-08-26T03:47:15.726Z,19.70
2022-08-26T03:49:42.435Z,19.70
2022-08-26T03:52:09.232Z,19.70
2022-08-26T03:54:36.909Z,19.70
2022-08-26T03:57:03.684Z,19.70
2022-08-26T03:59:32.024Z,19.70
2022-08-26T04:01:58.711Z,19.70
2022-08-26T04:04:25.709Z,19.70
2022-08-26T04:06:58.378Z,19.70
2022-08-26T04:09:26.252Z,19.70
2022-08-26T04:11:53.880Z,19.60
2022-08-26T04:14:23.873Z,19.60
2022-08-26T04:16:52.515Z,19.60
2022-08-26T04:19:20.784Z,19.60
2022-08-26T04:21:50.945Z,19.60
2022-08-26T04:24:18.612Z,19.60
2022-08-26T04:26:45.714Z,19.60
2022-08-26T04:29:15.432Z,19.60
2022-08-26T04:31:42.366Z,19.60
2022-08-26T04:34:11.057Z,19.60
2022-08-26T04:36:38.508Z,19.60
2022-08-26T04:39:05.433Z,19.70
2022-08-26T04:41:32.916Z,19.60
2022-08-26T04:43:59.999Z,19.70
2022-08-26T04:46:27.486Z,19.70
2022-08-26T04:48:54.209Z,19.70
2022-08-26T04:51:27.347Z,19.70
2022-08-26T04:53:58.984Z,19.70
2022-08-26T04:56:32.600Z,19.70
2022-08-26T04:59:00.757Z,19.80
2022-08-26T05:01:28.339Z,19.70
2022-08-26T05:03:55.977Z,19.80
2022-08-26T05:06:22.730Z,19.80
2022-08-26T05:08:49.719Z,19.80
2022-08-26T05:11:16.602Z,19.80
2022-08-26T05:13:43.303Z,19.90
2022-08-26T05:16:12.393Z,19.90
2022-08-26T05:18:40.498Z,20.00
2022-08-26T05:21:07.564Z,20.00
2022-08-26T05:23:36.244Z,20.10
2022-08-26T05:26:08.837Z,20.20
2022-08-26T05:28:36.440Z,20.20
2022-08-26T05:31:23.604Z,20.30
2022-08-26T05:33:50.744Z,20.40
2022-08-26T05:36:21.064Z,20.40
2022-08-26T05:38:49.081Z,20.50
2022-08-26T05:41:39.432Z,20.50
2022-08-26T05:44:09.813Z,20.60
2022-08-26T05:46:37.712Z,20.60
2022-08-26T05:49:06.465Z,20.70
2022-08-26T05:51:40.544Z,20.80
2022-08-26T05:54:07.380Z,20.80
2022-08-26T05:56:37.629Z,20.90
2022-08-26T05:59:05.228Z,20.90
2022-08-26T06:01:35.819Z,21.00
2022-08-26T06:04:03.157Z,21.00
2022-08-26T06:06:32.627Z,21.10
2022-08-26T06:09:01.641Z,21.10
2022-08-26T06:11:30.644Z,21.20
2022-08-26T06:14:03.261Z,21.30
2022-08-26T06:16:32.302Z,21.40
2022-08-26T06:18:59.060Z,21.40
2022-08-26T06:21:30.763Z,21.50
2022-08-26T06:24:18.996Z,21.50
2022-08-26T06:26:55.077Z,21.60
2022-08-26T06:29:25.464Z,21.70
2022-08-26T06:31:54.025Z,21.80
2022-08-26T06:34:23.365Z,21.90
2022-08-26T06:36:58.574Z,22.00
2022-08-26T06:39:25.525Z,22.10
2022-08-26T06:41:52.362Z,22.30
2022-08-26T06:44:21.015Z,22.40
2022-08-26T06:46:50.490Z,22.50
2022-08-26T06:49:17.876Z,22.60
2022-08-26T06:51:44.637Z,22.70
2022-08-26T06:54:11.510Z,22.80
2022-08-26T06:56:41.753Z,23.00
2022-08-26T06:59:09.960Z,23.10
2022-08-26T07:01:44.992Z,23.30
2022-08-26T07:04:14.517Z,23.50
2022-08-26T07:06:48.841Z,23.60
2022-08-26T07:09:16.815Z,23.80
2022-08-26T07:11:44.491Z,24.00
2022-08-26T07:14:11.718Z,24.40
2022-08-26T07:16:39.953Z,24.70
2022-08-26T07:19:10.878Z,25.10
2022-08-26T07:21:40.427Z,25.40
2022-08-26T07:24:08.126Z,25.70
2022-08-26T07:26:34.902Z,26.00
2022-08-26T07:29:02.001Z,26.30
2022-08-26T07:31:37.369Z,26.50
2022-08-26T07:34:07.588Z,26.70
2022-08-26T07:36:34.545Z,27.00
2022-08-26T07:39:01.314Z,27.20
2022-08-26T07:43:59.607Z,27.50
2022-08-26T07:46:29.941Z,27.70
2022-08-26T07:48:57.474Z,27.90
2022-08-26T07:51:24.832Z,28.10
2022-08-26T07:53:53.047Z,28.30
2022-08-26T07:56:21.178Z,28.50
2022-08-26T07:58:51.435Z,28.70
2022-08-26T08:01:19.812Z,28.80
2022-08-26T08:03:46.902Z,28.90
2022-08-26T08:06:18.605Z,29.00
2022-08-26T08:08:45.335Z,29.10
2022-08-26T08:11:12.306Z,29.30
2022-08-26T08:13:39.438Z,29.60
2022-08-26T08:16:07.167Z,29.70
2022-08-26T08:18:40.179Z,30.00
2022-08-26T08:21:21.860Z,30.20
2022-08-26T08:23:52.128Z,30.40
2022-08-26T08:26:18.986Z,30.60
2022-08-26T08:28:47.754Z,30.70
2022-08-26T08:31:55.872Z,30.70
2022-08-26T08:34:21.430Z,30.90
2022-08-26T08:36:48.654Z,31.10
2022-08-26T08:39:16.761Z,31.10
2022-08-26T08:42:13.896Z,31.30
2022-08-26T08:44:44.204Z,31.30
2022-08-26T08:47:42.047Z,31.50
2022-08-26T08:50:21.319Z,31.60
2022-08-26T08:53:17.433Z,31.70
2022-08-26T08:56:01.917Z,31.70
2022-08-26T08:58:51.567Z,31.70
2022-08-26T09:01:45.338Z,31.80
2022-08-26T09:04:36.493Z,31.60
2022-08-26T09:07:06.571Z,31.30
2022-08-26T09:09:43.221Z,31.10
2022-08-26T09:12:18.972Z,30.70
2022-08-26T09:14:49.123Z,30.50
2022-08-26T09:17:49.536Z,30.50
2022-08-26T09:21:00.311Z,30.30
2022-08-26T09:23:27.272Z,30.20
2022-08-26T09:26:01.051Z,30.20
2022-08-26T09:28:30.636Z,30.20
2022-08-26T09:31:19.613Z,30.30
2022-08-26T09:33:47.145Z,30.60
2022-08-26T09:36:41.274Z,30.90
2022-08-26T09:39:37.768Z,31.10
2022-08-26T09:42:14.289Z,31.30
2022-08-26T09:45:04.877Z,31.90
2022-08-26T09:47:35.968Z,32.50
2022-08-26T09:50:20.077Z,32.80
2022-08-26T09:52:47.293Z,32.90
2022-08-26T09:55:21.637Z,32.70
2022-08-26T09:57:54.093Z,32.60
2022-08-26T10:00:26.299Z,32.40
2022-08-26T10:02:56.036Z,32.20
2022-08-26T10:05:56.760Z,31.90
2022-08-26T10:08:37.112Z,31.50
2022-08-26T10:11:19.269Z,31.20
2022-08-26T10:13:52.584Z,31.00
2022-08-26T10:16:28.532Z,30.80
2022-08-26T10:19:04.725Z,30.60
2022-08-26T10:21:38.947Z,30.60
2022-08-26T10:24:09.029Z,30.50
2022-08-26T10:27:05.117Z,30.40
2022-08-26T10:29:45.652Z,30.20
2022-08-26T10:32:16.409Z,30.30
2022-08-26T10:34:43.773Z,30.40
2022-08-26T10:37:18.000Z,30.60
2022-08-26T10:40:00.681Z,30.90
2022-08-26T10:42:27.355Z,31.10
2022-08-26T10:44:58.474Z,31.30
2022-08-26T10:47:31.683Z,31.30
2022-08-26T10:50:03.426Z,31.10
2022-08-26T10:52:57.611Z,30.90
2022-08-26T10:55:35.555Z,30.70
2022-08-26T10:58:47.059Z,30.40
2022-08-26T11:01:44.010Z,30.30
2022-08-26T11:04:35.336Z,30.10
2022-08-26T11:07:32.848Z,30.00
2022-08-26T11:10:05.215Z,30.00
2022-08-26T11:12:34.588Z,29.90
2022-08-26T11:15:10.000Z,29.90
2022-08-26T11:17:48.647Z,29.70
2022-08-26T11:20:37.274Z,29.70
2022-08-26T11:23:24.024Z,29.70
2022-08-26T11:25:56.989Z,29.80
2022-08-26T11:28:44.607Z,29.80
2022-08-26T11:31:19.124Z,29.80
2022-08-26T11:33:51.735Z,29.80
2022-08-26T11:36:41.612Z,29.90
2022-08-26T11:39:25.387Z,30.00
2022-08-26T11:41:54.147Z,30.10
2022-08-26T11:44:27.046Z,30.20
2022-08-26T11:47:01.581Z,30.50
2022-08-26T11:49:31.740Z,31.30
2022-08-26T11:52:13.786Z,31.50
2022-08-26T11:54:58.688Z,31.30
2022-08-26T11:57:27.088Z,31.00
2022-08-26T11:59:55.095Z,30.60
2022-08-26T12:02:21.878Z,30.90
2022-08-26T12:04:51.035Z,31.30
2022-08-26T12:07:27.502Z,31.30
2022-08-26T12:09:58.597Z,31.20
2022-08-26T12:12:35.136Z,31.00
2022-08-26T12:15:18.497Z,30.90
2022-08-26T12:17:51.719Z,31.40
2022-08-26T12:20:30.679Z,32.00
2022-08-26T12:22:59.132Z,32.60
2022-08-26T12:25:27.934Z,32.80
2022-08-26T12:28:05.426Z,32.80
2022-08-26T12:30:32.132Z,33.00
2022-08-26T12:33:22.359Z,33.10
2022-08-26T12:35:54.811Z,32.70
2022-08-26T12:38:25.438Z,32.60
2022-08-26T12:40:52.543Z,32.30
2022-08-26T12:43:44.476Z,31.90
2022-08-26T12:46:17.859Z,31.80
2022-08-26T12:48:49.024Z,31.80
2022-08-26T12:51:28.592Z,31.60
2022-08-26T12:53:56.239Z,31.30
2022-08-26T12:56:39.479Z,31.10
2022-08-26T12:59:22.235Z,30.80
2022-08-26T13:01:49.514Z,30.50
2022-08-26T13:04:39.147Z,30.40
2022-08-26T13:07:13.471Z,30.20
2022-08-26T13:09:40.151Z,30.00
2022-08-26T13:12:07.029Z,29.30
2022-08-26T13:14:33.808Z,28.30
2022-08-26T13:17:00.486Z,27.60
2022-08-26T13:19:27.294Z,26.70
2022-08-26T13:21:57.283Z,26.50
2022-08-26T13:24:37.089Z,25.80
2022-08-26T13:27:05.543Z,25.40
2022-08-26T13:29:32.543Z,25.00
2022-08-26T13:31:59.863Z,24.80
2022-08-26T13:34:27.467Z,24.70
2022-08-26T13:36:56.261Z,24.60
2022-08-26T13:39:23.756Z,24.50
2022-08-26T13:41:50.590Z,24.40
2022-08-26T13:44:17.600Z,24.30
2022-08-26T13:49:12.689Z,24.30
2022-08-26T13:51:39.496Z,24.20
2022-08-26T13:54:06.440Z,24.10
2022-08-26T13:56:33.883Z,23.90
2022-08-26T13:59:01.336Z,23.80
2022-08-26T14:01:30.291Z,23.80
2022-08-26T14:03:57.933Z,23.70
2022-08-26T14:06:25.237Z,23.70
2022-08-26T14:08:51.962Z,23.70
2022-08-26T14:11:19.025Z,23.60
2022-08-26T14:13:45.797Z,23.60
2022-08-26T14:16:22.105Z,23.60
2022-08-26T14:18:50.934Z,23.60
2022-08-26T14:21:18.270Z,23.60
2022-08-26T14:23:45.223Z,23.70
2022-08-26T14:26:19.007Z,23.70
2022-08-26T14:28:57.505Z,23.70
2022-08-26T14:31:24.532Z,23.70
2022-08-26T14:33:51.346Z,23.60
2022-08-26T14:36:32.266Z,23.70
2022-08-26T14:39:02.586Z,23.70
2022-08-26T14:41:31.210Z,23.70
2022-08-26T14:44:01.716Z,23.80
2022-08-26T14:46:30.160Z,23.80
2022-08-26T14:49:02.018Z,23.80
2022-08-26T14:51:30.123Z,23.60
2022-08-26T14:54:11.830Z,23.30
2022-08-26T14:57:04.861Z,23.20
2022-08-26T14:59:38.288Z,23.10
2022-08-26T15:02:09.307Z,23.00
2022-08-26T15:04:44.512Z,23.00
2022-08-26T15:07:18.452Z,23.00
2022-08-26T15:09:48.327Z,22.90
2022-08-26T15:12:19.958Z,22.90
2022-08-26T15:14:46.878Z,22.70
2022-08-26T15:17:16.889Z,22.60
2022-08-26T15:19:46.015Z,22.60
2022-08-26T15:22:18.476Z,22.60
2022-08-26T15:25:09.517Z,22.60
2022-08-26T15:27:39.485Z,22.60
2022-08-26T15:30:18.926Z,22.70
2022-08-26T15:32:45.612Z,22.80
2022-08-26T15:35:12.509Z,22.80
2022-08-26T15:37:39.562Z,22.70
2022-08-26T15:40:12.475Z,22.70
2022-08-26T15:42:57.505Z,22.60
2022-08-26T15:45:44.807Z,22.60
2022-08-26T15:48:26.890Z,22.60
2022-08-26T15:56:51.694Z,22.70
2022-08-26T15:59:19.942Z,22.60
2022-08-26T16:01:46.743Z,22.70
2022-08-26T16:04:14.122Z,22.60
2022-08-26T16:06:42.425Z,22.40
2022-08-26T16:09:09.551Z,22.20
2022-08-26T16:11:37.835Z,22.10
2022-08-26T16:14:05.171Z,22.00
2022-08-26T16:16:32.359Z,22.00
2022-08-26T16:18:59.892Z,22.00
2022-08-26T16:21:32.341Z,22.00
2022-08-26T16:24:00.259Z,22.00
2022-08-26T16:26:32.355Z,22.00
2022-08-26T16:29:04.254Z,22.00
2022-08-26T16:31:31.401Z,21.90
2022-08-26T16:33:58.161Z,21.90
2022-08-26T16:36:24.859Z,21.90
2022-08-26T16:38:55.179Z,21.90
2022-08-26T16:41:27.636Z,21.90
2022-08-26T16:43:55.168Z,21.90
2022-08-26T16:46:25.430Z,21.90
2022-08-26T16:48:54.194Z,21.80
2022-08-26T16:51:26.863Z,21.90
2022-08-26T16:53:55.191Z,21.80
2022-08-26T16:56:27.677Z,21.90
2022-08-26T16:59:00.800Z,21.80
2022-08-26T17:01:27.773Z,21.80
2022-08-26T17:03:54.514Z,21.80
2022-08-26T17:06:21.350Z,21.80
2022-08-26T17:08:48.131Z,21.70
2022-08-26T17:11:15.406Z,21.70
2022-08-26T17:13:42.160Z,21.60
2022-08-26T17:16:11.361Z,21.70
2022-08-26T17:18:38.363Z,21.60
2022-08-26T17:21:08.310Z,21.60
2022-08-26T17:23:35.857Z,21.60
2022-08-26T17:26:02.891Z,21.60
2022-08-26T17:28:29.574Z,21.60
2022-08-26T17:30:57.860Z,21.60
2022-08-26T17:33:25.637Z,21.60
2022-08-26T17:35:53.089Z,21.50
2022-08-26T17:38:21.037Z,21.50
2022-08-26T17:40:47.782Z,21.50
2022-08-26T17:43:14.470Z,21.50
2022-08-26T17:45:41.549Z,21.40
2022-08-26T17:48:08.647Z,21.40
2022-08-26T17:50:35.594Z,21.40
2022-08-26T17:53:02.295Z,21.40
2022-08-26T17:55:29.127Z,21.30
2022-08-26T17:57:55.857Z,21.20
2022-08-26T18:00:26.546Z,21.20
2022-08-26T18:02:54.449Z,21.10
2022-08-26T18:05:22.239Z,21.20
2022-08-26T18:07:48.997Z,21.10
2022-08-26T18:10:18.419Z,21.10
2022-08-26T18:12:46.187Z,21.10
2022-08-26T18:15:17.482Z,21.10
2022-08-26T18:17:44.668Z,21.10
2022-08-26T18:20:16.330Z,21.10
2022-08-26T18:22:43.994Z,21.10
2022-08-26T18:25:11.689Z,21.00
2022-08-26T18:27:38.745Z,21.00
2022-08-26T18:30:13.431Z,21.00
2022-08-26T18:32:42.897Z,21.00
2022-08-26T18:35:10.589Z,20.90
2022-08-26T18:37:37.603Z,20.90
2022-08-26T18:40:07.404Z,21.00
2022-08-26T18:42:34.924Z,21.00
2022-08-26T18:45:01.963Z,20.90
2022-08-26T18:47:30.011Z,21.00
2022-08-26T18:49:56.678Z,21.00
2022-08-26T18:52:23.885Z,20.90
2022-08-26T18:54:50.950Z,20.90
2022-08-26T18:57:17.686Z,20.90
2022-08-26T18:59:44.743Z,20.90
2022-08-26T19:02:11.631Z,20.90
2022-08-26T19:04:38.860Z,20.90
2022-08-26T19:07:06.414Z,20.90
2022-08-26T19:09:33.276Z,20.90
2022-08-26T19:12:01.615Z,21.00
2022-08-26T19:14:28.971Z,21.00
2022-08-26T19:16:55.915Z,20.90
2022-08-26T19:19:25.548Z,20.80
2022-08-26T19:21:53.059Z,20.80
2022-08-26T19:24:21.182Z,20.70
2022-08-26T19:26:51.355Z,20.70
2022-08-26T19:29:27.012Z,20.60
2022-08-26T19:31:53.798Z,20.60
2022-08-26T19:34:20.912Z,20.60
2022-08-26T19:36:48.170Z,20.60
2022-08-26T19:39:14.925Z,20.60
2022-08-26T19:41:41.928Z,20.50
2022-08-26T19:44:38.816Z,20.50
2022-08-26T19:47:08.296Z,20.50
2022-08-26T19:49:35.533Z,20.40
2022-08-26T19:52:03.307Z,20.40
2022-08-26T19:54:30.444Z,20.40
2022-08-26T19:56:57.543Z,20.40
2022-08-26T19:59:24.311Z,20.50
2022-08-26T20:02:01.121Z,20.50
2022-08-26T20:04:29.747Z,20.50
2022-08-26T20:06:57.689Z,20.50
2022-08-26T20:09:27.529Z,20.50
2022-08-26T20:11:54.169Z,20.50
2022-08-26T20:14:23.973Z,20.50
2022-08-26T20:16:50.697Z,20.50
2022-08-26T20:19:37.648Z,20.50
2022-08-26T20:22:04.879Z,20.50
2022-08-26T20:24:32.541Z,20.60
2022-08-26T20:26:59.418Z,20.60
2022-08-26T20:29:26.175Z,20.60
2022-08-26T20:31:54.599Z,20.60
2022-08-26T20:34:21.643Z,20.60
2022-08-26T20:36:50.150Z,20.60
2022-08-26T20:39:18.777Z,20.60
2022-08-26T20:41:45.440Z,20.60
2022-08-26T20:44:13.602Z,20.60
2022-08-26T20:46:40.923Z,20.60
2022-08-26T20:49:07.934Z,20.60
2022-08-26T20:51:35.300Z,20.60
2022-08-26T20:54:01.989Z,20.60
2022-08-26T20:56:28.719Z,20.50
2022-08-26T20:59:00.323Z,20.60
2022-08-26T21:01:33.491Z,20.60
2022-08-26T21:04:02.698Z,20.60
2022-08-26T21:06:30.265Z,20.60
2022-08-26T21:08:58.604Z,20.60
2022-08-26T21:11:26.329Z,20.60
2022-08-26T21:14:16.059Z,20.60
2022-08-26T21:16:41.378Z,20.60
2022-08-26T21:19:10.663Z,20.60
2022-08-26T21:21:37.738Z,20.60
2022-08-26T21:24:04.630Z,20.60
2022-08-26T21:26:31.314Z,20.60
2022-08-26T21:28:58.131Z,20.50
2022-08-26T21:31:25.601Z,20.50
2022-08-26T21:33:52.909Z,20.50
2022-08-26T21:36:19.979Z,20.50
2022-08-26T21:38:47.078Z,20.40
2022-08-26T21:41:19.307Z,20.50
2022-08-26T21:43:47.446Z,20.50
2022-08-26T21:46:18.815Z,20.50
2022-08-26T21:48:50.662Z,20.50
2022-08-26T21:51:20.523Z,20.50
2022-08-26T21:53:47.675Z,20.50
2022-08-26T21:56:16.796Z,20.40
2022-08-26T21:58:43.948Z,20.40
2022-08-26T22:01:13.854Z,20.40
2022-08-26T22:03:47.258Z,20.30
2022-08-26T22:06:15.744Z,20.30
2022-08-26T22:08:42.403Z,20.30
2022-08-26T22:11:09.671Z,20.30
2022-08-26T22:13:38.724Z,20.30
2022-08-26T22:16:06.735Z,20.30
2022-08-26T22:18:34.218Z,20.30
2022-08-26T22:21:04.841Z,20.20
2022-08-26T22:23:31.986Z,20.20
2022-08-26T22:25:59.728Z,20.10
2022-08-26T22:28:26.799Z,20.10
2022-08-26T22:30:54.035Z,20.10
2022-08-26T22:33:20.733Z,20.00
2022-08-26T22:35:50.635Z,20.10
2022-08-26T22:38:17.801Z,20.00
2022-08-26T22:40:47.336Z,20.00
2022-08-26T22:43:14.559Z,20.00
2022-08-26T22:45:43.444Z,20.00
2022-08-26T22:48:12.087Z,20.00
2022-08-26T22:50:38.966Z,20.00
2022-08-26T22:53:05.655Z,20.00
2022-08-26T22:55:32.356Z,20.00
2022-08-26T22:57:59.271Z,20.00
2022-08-26T23:00:32.235Z,20.00
2022-08-26T23:03:00.295Z,19.90
2022-08-26T23:05:27.220Z,19.90
2022-08-26T23:07:54.075Z,19.80
2022-08-26T23:10:20.954Z,19.80
2022-08-26T23:12:47.621Z,19.80
2022-08-26T23:15:15.064Z,19.80
2022-08-26T23:17:43.041Z,19.80
2022-08-26T23:20:11.762Z,19.80
2022-08-26T23:22:39.938Z,19.80
2022-08-26T23:25:10.033Z,19.80
2022-08-26T23:27:39.628Z,19.80
2022-08-26T23:30:08.816Z,19.80
2022-08-26T23:32:35.525Z,19.80
2022-08-26T23:35:02.243Z,19.80
2022-08-26T23:37:33.519Z,19.80
2022-08-26T23:40:05.809Z,19.80
2022-08-26T23:42:32.555Z,19.80
2022-08-26T23:44:59.214Z,19.80
2022-08-26T23:47:26.173Z,19.90
2022-08-26T23:49:53.106Z,19.90
2022-08-26T23:52:38.394Z,19.80
2022-08-26T23:55:06.090Z,19.90
2022-08-26T23:57:33.687Z,19.90
